Time,TemperatureF,DewpointF,PressureIn,WindDirection,WindDirectionDegrees,WindSpeedMPH,WindSpeedGustMPH,Humidity,HourlyPrecipIn,Conditions,Clouds,dailyrainin,SoftwareType,DateUTC
2013-11-22 00:01:00,56.5,25.3,30.03,NNE,15,7.0,16.0,30,0.00,,,0.00,meteohub,2013-11-22 08:01:00,
2013-11-22 00:06:00,56.3,25.3,30.03,North,11,4.0,15.0,30,0.00,,,0.00,meteohub,2013-11-22 08:06:00,
2013-11-22 00:11:00,56.1,25.2,30.03,NNE,18,3.0,14.0,30,0.00,,,0.00,meteohub,2013-11-22 08:11:00,
2013-11-22 00:16:00,56.1,25.9,30.02,NNE,14,4.0,13.0,31,0.00,,,0.00,meteohub,2013-11-22 08:16:00,
2013-11-22 00:21:00,55.9,25.0,30.02,NNE,12,5.0,11.0,30,0.00,,,0.00,meteohub,2013-11-22 08:21:00,
2013-11-22 00:26:00,56.1,24.3,30.03,North,354,7.0,12.0,29,0.00,,,0.00,meteohub,2013-11-22 08:26:00,
2013-11-22 00:31:00,56.1,23.4,30.03,North,350,5.0,13.0,28,0.00,,,0.00,meteohub,2013-11-22 08:31:00,
2013-11-22 00:36:00,56.3,23.5,30.03,NNE,21,9.0,13.0,28,0.00,,,0.00,meteohub,2013-11-22 08:36:00,
2013-11-22 00:41:00,56.1,23.4,30.03,North,354,8.0,12.0,28,0.00,,,0.00,meteohub,2013-11-22 08:41:00,
2013-11-22 00:46:00,56.1,24.3,30.03,NNE,27,9.0,13.0,29,0.00,,,0.00,meteohub,2013-11-22 08:46:00,
2013-11-22 00:51:00,55.9,25.0,30.02,North,10,10.0,13.0,30,0.00,,,0.00,meteohub,2013-11-22 08:51:00,
2013-11-22 00:56:00,55.8,24.8,30.02,North,349,10.0,15.0,30,0.00,,,0.00,meteohub,2013-11-22 08:56:00,
2013-11-22 01:01:00,55.6,24.6,30.01,NNE,14,12.0,15.0,30,0.00,,,0.00,meteohub,2013-11-22 09:01:00,
2013-11-22 01:06:00,55.2,25.2,30.01,NNE,12,10.0,14.0,31,0.00,,,0.00,meteohub,2013-11-22 09:06:00,
2013-11-22 01:11:00,55.0,24.1,30.01,North,354,8.0,14.0,30,0.00,,,0.00,meteohub,2013-11-22 09:11:00,
2013-11-22 01:16:00,55.6,21.2,30.01,NE,38,17.0,17.0,26,0.00,,,0.00,meteohub,2013-11-22 09:16:00,
2013-11-22 01:21:00,56.8,20.5,30.01,NNE,25,9.0,22.0,24,0.00,,,0.00,meteohub,2013-11-22 09:21:00,
2013-11-22 01:26:00,57.0,19.6,30.01,NE,50,13.0,22.0,23,0.00,,,0.00,meteohub,2013-11-22 09:26:00,
2013-11-22 01:31:00,57.7,18.1,30.01,NE,41,14.0,23.0,21,0.00,,,0.00,meteohub,2013-11-22 09:31:00,
2013-11-22 01:36:00,57.7,18.1,30.01,NE,50,13.0,27.0,21,0.00,,,0.00,meteohub,2013-11-22 09:36:00,
2013-11-22 01:41:00,57.6,18.0,30.01,NE,37,14.0,27.0,21,0.00,,,0.00,meteohub,2013-11-22 09:41:00,
2013-11-22 01:46:00,57.7,18.1,30.01,NE,43,17.0,27.0,21,0.00,,,0.00,meteohub,2013-11-22 09:46:00,
2013-11-22 01:51:00,57.7,18.1,30.01,NE,48,14.0,27.0,21,0.00,,,0.00,meteohub,2013-11-22 09:51:00,
2013-11-22 01:56:00,57.6,18.0,30.01,NNE,29,13.0,27.0,21,0.00,,,0.00,meteohub,2013-11-22 09:56:00,
2013-11-22 02:01:00,57.2,18.7,30.01,NE,53,13.0,20.0,22,0.00,,,0.00,meteohub,2013-11-22 10:01:00,
2013-11-22 02:06:00,57.4,18.9,30.01,NNE,21,7.0,20.0,22,0.00,,,0.00,meteohub,2013-11-22 10:06:00,
2013-11-22 02:12:00,57.0,18.5,30.01,NNE,29,13.0,20.0,22,0.00,,,0.00,meteohub,2013-11-22 10:12:00,
2013-11-22 02:17:00,56.8,18.3,30.01,NNE,18,13.0,20.0,22,0.00,,,0.00,meteohub,2013-11-22 10:17:00,
2013-11-22 02:22:00,56.1,18.9,30.01,NNE,24,16.0,17.0,23,0.00,,,0.00,meteohub,2013-11-22 10:22:00,
2013-11-22 02:27:00,56.1,18.9,30.01,North,11,8.0,20.0,23,0.00,,,0.00,meteohub,2013-11-22 10:27:00,
2013-11-22 02:32:00,55.9,18.7,30.01,NE,38,11.0,20.0,23,0.00,,,0.00,meteohub,2013-11-22 10:32:00,
2013-11-22 02:37:00,55.6,19.4,30.01,NE,37,8.0,20.0,24,0.00,,,0.00,meteohub,2013-11-22 10:37:00,
2013-11-22 02:42:00,55.8,19.6,30.01,North,8,13.0,18.0,24,0.00,,,0.00,meteohub,2013-11-22 10:42:00,
2013-11-22 02:47:00,55.8,18.5,30.01,NNE,33,8.0,18.0,23,0.00,,,0.00,meteohub,2013-11-22 10:47:00,
2013-11-22 02:52:00,55.9,18.7,30.01,NNE,12,11.0,18.0,23,0.00,,,0.00,meteohub,2013-11-22 10:52:00,
2013-11-22 02:57:00,55.9,18.7,30.01,NE,41,14.0,19.0,23,0.00,,,0.00,meteohub,2013-11-22 10:57:00,
2013-11-22 03:02:00,56.1,18.9,30.02,NNE,23,16.0,19.0,23,0.00,,,0.00,meteohub,2013-11-22 11:02:00,
2013-11-22 03:07:00,56.3,18.0,30.02,ENE,62,16.0,20.0,22,0.00,,,0.00,meteohub,2013-11-22 11:07:00,
2013-11-22 03:12:00,57.0,15.1,30.01,NE,35,13.0,21.0,19,0.00,,,0.00,meteohub,2013-11-22 11:12:00,
2013-11-22 03:17:00,57.7,14.5,30.01,NE,35,18.0,23.0,18,0.00,,,0.00,meteohub,2013-11-22 11:17:00,
2013-11-22 03:22:00,57.9,13.3,30.02,NE,40,27.0,33.0,17,0.00,,,0.00,meteohub,2013-11-22 11:22:00,
2013-11-22 03:27:00,57.9,13.3,30.02,North,8,12.0,34.0,17,0.00,,,0.00,meteohub,2013-11-22 11:27:00,
2013-11-22 03:32:00,57.9,13.3,30.01,NE,45,16.0,34.0,17,0.00,,,0.00,meteohub,2013-11-22 11:32:00,
2013-11-22 03:37:00,57.7,13.3,30.02,NNE,30,14.0,34.0,17,0.00,,,0.00,meteohub,2013-11-22 11:37:00,
2013-11-22 03:42:00,57.7,13.3,30.02,NE,48,9.0,24.0,17,0.00,,,0.00,meteohub,2013-11-22 11:42:00,
2013-11-22 03:47:00,57.6,13.1,30.02,NNE,29,11.0,24.0,17,0.00,,,0.00,meteohub,2013-11-22 11:47:00,
2013-11-22 03:52:00,57.7,13.3,30.02,NE,36,12.0,19.0,17,0.00,,,0.00,meteohub,2013-11-22 11:52:00,
2013-11-22 03:57:00,57.6,13.1,30.03,NE,48,13.0,18.0,17,0.00,,,0.00,meteohub,2013-11-22 11:57:00,
2013-11-22 04:02:00,57.6,13.1,30.03,NNE,25,8.0,18.0,17,0.00,,,0.00,meteohub,2013-11-22 12:02:00,
2013-11-22 04:07:00,57.6,14.4,30.03,NNE,33,5.0,18.0,18,0.00,,,0.00,meteohub,2013-11-22 12:07:00,
2013-11-22 04:12:00,57.4,14.2,30.03,North,349,4.0,18.0,18,0.00,,,0.00,meteohub,2013-11-22 12:12:00,
2013-11-22 04:17:00,56.8,17.2,30.04,NW,325,4.0,16.0,21,0.00,,,0.00,meteohub,2013-11-22 12:17:00,
2013-11-22 04:22:00,55.9,21.6,30.04,NW,316,8.0,12.0,26,0.00,,,0.00,meteohub,2013-11-22 12:22:00,
2013-11-22 04:27:00,55.4,22.8,30.04,NNW,335,7.0,9.0,28,0.00,,,0.00,meteohub,2013-11-22 12:27:00,
2013-11-22 04:32:00,55.2,20.8,30.04,NNW,343,9.0,10.0,26,0.00,,,0.00,meteohub,2013-11-22 12:32:00,
2013-11-22 04:37:00,55.8,19.6,30.04,North,354,6.0,12.0,24,0.00,,,0.00,meteohub,2013-11-22 12:37:00,
2013-11-22 04:42:00,55.8,18.5,30.04,NNW,332,4.0,12.0,23,0.00,,,0.00,meteohub,2013-11-22 12:42:00,
2013-11-22 04:47:00,55.8,18.5,30.04,NNW,339,6.0,12.0,23,0.00,,,0.00,meteohub,2013-11-22 12:47:00,
2013-11-22 04:52:00,55.8,18.5,30.04,North,349,5.0,10.0,23,0.00,,,0.00,meteohub,2013-11-22 12:52:00,
2013-11-22 04:57:00,55.6,18.3,30.04,North,354,6.0,9.0,23,0.00,,,0.00,meteohub,2013-11-22 12:57:00,
2013-11-22 05:02:00,55.4,19.2,30.04,North,4,7.0,10.0,24,0.00,,,0.00,meteohub,2013-11-22 13:02:00,
2013-11-22 05:07:00,55.2,19.0,30.04,NNE,18,5.0,10.0,24,0.00,,,0.00,meteohub,2013-11-22 13:07:00,
2013-11-22 05:12:00,55.0,18.9,30.04,North,10,6.0,9.0,24,0.00,,,0.00,meteohub,2013-11-22 13:12:00,
2013-11-22 05:18:00,54.9,18.7,30.04,North,4,8.0,9.0,24,0.00,,,0.00,meteohub,2013-11-22 13:18:00,
2013-11-22 05:23:00,54.7,18.5,30.05,North,4,5.0,9.0,24,0.00,,,0.00,meteohub,2013-11-22 13:23:00,
2013-11-22 05:28:00,54.7,19.6,30.05,North,4,5.0,9.0,25,0.00,,,0.00,meteohub,2013-11-22 13:28:00,
2013-11-22 05:33:00,54.9,20.7,30.05,NNW,347,5.0,9.0,26,0.00,,,0.00,meteohub,2013-11-22 13:33:00,
2013-11-22 05:38:00,54.7,22.3,30.05,NNW,336,3.0,8.0,28,0.00,,,0.00,meteohub,2013-11-22 13:38:00,
2013-11-22 05:43:00,54.3,22.6,30.05,NNW,329,4.0,8.0,29,0.00,,,0.00,meteohub,2013-11-22 13:43:00,
2013-11-22 05:48:00,54.1,21.7,30.05,NW,320,5.0,8.0,28,0.00,,,0.00,meteohub,2013-11-22 13:48:00,
2013-11-22 05:53:00,54.0,21.6,30.06,NW,318,4.0,5.0,28,0.00,,,0.00,meteohub,2013-11-22 13:53:00,
2013-11-22 05:58:00,53.8,21.4,30.06,WNW,297,2.0,5.0,28,0.00,,,0.00,meteohub,2013-11-22 13:58:00,
2013-11-22 06:03:00,53.4,21.2,30.06,WNW,285,4.0,5.0,28,0.00,,,0.00,meteohub,2013-11-22 14:03:00,
2013-11-22 06:08:00,53.4,20.3,30.06,WNW,283,4.0,6.0,27,0.00,,,0.00,meteohub,2013-11-22 14:08:00,
2013-11-22 06:13:00,53.6,20.5,30.06,WNW,283,0.0,6.0,27,0.00,,,0.00,meteohub,2013-11-22 14:13:00,
2013-11-22 06:18:00,53.8,19.8,30.06,WNW,300,3.0,6.0,26,0.00,,,0.00,meteohub,2013-11-22 14:18:00,
2013-11-22 06:23:00,53.8,17.8,30.06,WNW,300,2.0,6.0,24,0.00,,,0.00,meteohub,2013-11-22 14:23:00,
2013-11-22 06:28:00,54.0,18.0,30.06,North,354,4.0,5.0,24,0.00,,,0.00,meteohub,2013-11-22 14:28:00,
2013-11-22 06:33:00,54.0,18.0,30.06,North,4,4.0,6.0,24,0.00,,,0.00,meteohub,2013-11-22 14:33:00,
2013-11-22 06:38:00,54.1,18.1,30.06,North,8,4.0,9.0,24,0.00,,,0.00,meteohub,2013-11-22 14:38:00,
2013-11-22 06:43:00,54.1,19.0,30.06,NNE,21,7.0,9.0,25,0.00,,,0.00,meteohub,2013-11-22 14:43:00,
2013-11-22 06:48:00,54.1,19.0,30.06,NNE,12,5.0,8.0,25,0.00,,,0.00,meteohub,2013-11-22 14:48:00,
2013-11-22 06:53:00,54.1,19.0,30.06,NNE,16,5.0,8.0,25,0.00,,,0.00,meteohub,2013-11-22 14:53:00,
2013-11-22 06:58:00,54.3,19.2,30.06,North,8,3.0,10.0,25,0.00,,,0.00,meteohub,2013-11-22 14:58:00,
2013-11-22 07:03:00,54.3,19.2,30.06,North,4,4.0,10.0,25,0.00,,,0.00,meteohub,2013-11-22 15:03:00,
2013-11-22 07:08:00,54.3,19.2,30.06,North,359,4.0,10.0,25,0.00,,,0.00,meteohub,2013-11-22 15:08:00,
2013-11-22 07:13:00,54.5,21.2,30.06,North,350,4.0,9.0,27,0.00,,,0.00,meteohub,2013-11-22 15:13:00,
2013-11-22 07:18:00,54.5,22.1,30.06,North,4,3.0,8.0,28,0.00,,,0.00,meteohub,2013-11-22 15:18:00,
2013-11-22 07:23:00,54.3,22.6,30.06,North,8,2.0,8.0,29,0.00,,,0.00,meteohub,2013-11-22 15:23:00,
2013-11-22 07:28:00,54.5,22.1,30.06,North,4,4.0,8.0,28,0.00,,,0.00,meteohub,2013-11-22 15:28:00,
2013-11-22 07:34:00,54.7,21.4,30.06,North,4,4.0,6.0,27,0.00,,,0.00,meteohub,2013-11-22 15:34:00,
2013-11-22 07:39:00,54.9,20.7,30.06,North,349,2.0,6.0,26,0.00,,,0.00,meteohub,2013-11-22 15:39:00,
2013-11-22 07:44:00,55.0,20.8,30.06,North,349,6.0,6.0,26,0.00,,,0.00,meteohub,2013-11-22 15:44:00,
2013-11-22 07:49:00,55.0,20.8,30.06,North,4,2.0,7.0,26,0.00,,,0.00,meteohub,2013-11-22 15:49:00,
2013-11-22 07:54:00,55.2,20.8,30.06,North,4,3.0,7.0,26,0.00,,,0.00,meteohub,2013-11-22 15:54:00,
2013-11-22 07:59:00,55.4,20.1,30.06,North,8,4.0,7.0,25,0.00,,,0.00,meteohub,2013-11-22 15:59:00,
2013-11-22 08:04:00,55.4,20.1,30.06,NNE,15,8.0,8.0,25,0.00,,,0.00,meteohub,2013-11-22 16:04:00,
2013-11-22 08:09:00,55.4,21.0,30.06,North,10,4.0,8.0,26,0.00,,,0.00,meteohub,2013-11-22 16:09:00,
2013-11-22 08:14:00,55.6,21.2,30.06,NNE,19,10.0,10.0,26,0.00,,,0.00,meteohub,2013-11-22 16:14:00,
2013-11-22 08:19:00,55.8,21.4,30.06,NNE,33,8.0,12.0,26,0.00,,,0.00,meteohub,2013-11-22 16:19:00,
2013-11-22 08:24:00,56.3,20.8,30.06,NNE,16,10.0,12.0,25,0.00,,,0.00,meteohub,2013-11-22 16:24:00,
2013-11-22 08:29:00,56.8,20.5,30.06,NNE,33,6.0,12.0,24,0.00,,,0.00,meteohub,2013-11-22 16:29:00,
2013-11-22 08:34:00,57.6,19.0,30.06,North,10,5.0,12.0,22,0.00,,,0.00,meteohub,2013-11-22 16:34:00,
2013-11-22 08:39:00,57.9,17.1,30.06,NNE,27,8.0,12.0,20,0.00,,,0.00,meteohub,2013-11-22 16:39:00,
2013-11-22 08:44:00,58.3,17.4,30.06,NNE,25,8.0,12.0,20,0.00,,,0.00,meteohub,2013-11-22 16:44:00,
2013-11-22 08:49:00,58.6,15.3,30.06,NNE,25,8.0,12.0,18,0.00,,,0.00,meteohub,2013-11-22 16:49:00,
2013-11-22 08:54:00,59.0,15.6,30.06,NNE,19,8.0,15.0,18,0.00,,,0.00,meteohub,2013-11-22 16:54:00,
2013-11-22 08:59:00,59.5,16.0,30.06,NNE,13,10.0,15.0,18,0.00,,,0.00,meteohub,2013-11-22 16:59:00,
2013-11-22 09:04:00,59.7,14.9,30.06,NNE,17,8.0,15.0,17,0.00,,,0.00,meteohub,2013-11-22 17:04:00,
2013-11-22 09:09:00,60.1,15.1,30.06,NNE,18,9.0,18.0,17,0.00,,,0.00,meteohub,2013-11-22 17:09:00,
2013-11-22 09:14:00,60.3,13.8,30.06,NNW,347,9.0,20.0,16,0.00,,,0.00,meteohub,2013-11-22 17:14:00,
2013-11-22 09:19:00,60.4,12.6,30.06,NE,56,11.0,20.0,15,0.00,,,0.00,meteohub,2013-11-22 17:19:00,
2013-11-22 09:24:00,60.8,12.9,30.06,NNE,15,8.0,20.0,15,0.00,,,0.00,meteohub,2013-11-22 17:24:00,
2013-11-22 09:29:00,61.2,13.1,30.06,NNE,14,9.0,20.0,15,0.00,,,0.00,meteohub,2013-11-22 17:29:00,
2013-11-22 09:34:00,61.3,13.3,30.06,NNE,28,8.0,20.0,15,0.00,,,0.00,meteohub,2013-11-22 17:34:00,
2013-11-22 09:39:00,61.5,13.5,30.06,NNE,15,6.0,18.0,15,0.00,,,0.00,meteohub,2013-11-22 17:39:00,
2013-11-22 09:44:00,61.9,13.6,30.06,NNE,12,8.0,19.0,15,0.00,,,0.00,meteohub,2013-11-22 17:44:00,
2013-11-22 09:50:00,62.1,13.8,30.06,NNE,12,7.0,19.0,15,0.00,,,0.00,meteohub,2013-11-22 17:50:00,
2013-11-22 09:55:00,62.6,14.4,30.05,North,350,7.0,19.0,15,0.00,,,0.00,meteohub,2013-11-22 17:55:00,
2013-11-22 10:00:00,63.0,14.5,30.05,NE,34,9.0,17.0,15,0.00,,,0.00,meteohub,2013-11-22 18:00:00,
2013-11-22 10:05:00,63.3,11.7,30.05,NE,35,17.0,17.0,13,0.00,,,0.00,meteohub,2013-11-22 18:05:00,
2013-11-22 10:10:00,63.7,10.0,30.05,NNE,33,14.0,20.0,12,0.00,,,0.00,meteohub,2013-11-22 18:10:00,
2013-11-22 10:15:00,63.9,10.2,30.04,NE,34,10.0,23.0,12,0.00,,,0.00,meteohub,2013-11-22 18:15:00,
2013-11-22 10:20:00,64.0,10.4,30.04,NNE,14,11.0,23.0,12,0.00,,,0.00,meteohub,2013-11-22 18:20:00,
2013-11-22 10:25:00,64.2,10.6,30.04,NNE,25,8.0,23.0,12,0.00,,,0.00,meteohub,2013-11-22 18:25:00,
2013-11-22 10:30:00,64.2,10.6,30.04,NNE,20,14.0,23.0,12,0.00,,,0.00,meteohub,2013-11-22 18:30:00,
2013-11-22 10:35:00,64.4,14.2,30.04,NNE,33,9.0,19.0,14,0.00,,,0.00,meteohub,2013-11-22 18:35:00,
2013-11-22 10:40:00,64.6,14.4,30.04,North,349,11.0,20.0,14,0.00,,,0.00,meteohub,2013-11-22 18:40:00,
2013-11-22 10:45:00,64.9,14.5,30.04,North,350,8.0,22.0,14,0.00,,,0.00,meteohub,2013-11-22 18:45:00,
2013-11-22 10:50:00,64.9,14.5,30.03,NNW,336,8.0,22.0,14,0.00,,,0.00,meteohub,2013-11-22 18:50:00,
2013-11-22 10:55:00,65.1,14.7,30.03,NNW,344,8.0,16.0,14,0.00,,,0.00,meteohub,2013-11-22 18:55:00,
2013-11-22 11:00:00,65.5,15.1,30.02,North,354,7.0,16.0,14,0.00,,,0.00,meteohub,2013-11-22 19:00:00,
2013-11-22 11:05:00,66.6,14.2,30.02,NNE,25,17.0,18.0,13,0.00,,,0.00,meteohub,2013-11-22 19:05:00,
2013-11-22 11:10:00,67.3,12.9,30.02,NNE,23,11.0,18.0,12,0.00,,,0.00,meteohub,2013-11-22 19:10:00,
2013-11-22 11:15:00,67.6,11.3,30.01,NE,39,7.0,18.0,11,0.00,,,0.00,meteohub,2013-11-22 19:15:00,
2013-11-22 11:20:00,68.0,9.3,30.02,ENE,62,8.0,18.0,10,0.00,,,0.00,meteohub,2013-11-22 19:20:00,
2013-11-22 11:25:00,68.2,9.5,30.01,NE,56,8.0,17.0,10,0.00,,,0.00,meteohub,2013-11-22 19:25:00,
2013-11-22 11:30:00,68.0,20.1,30.01,NNW,346,7.0,16.0,16,0.00,,,0.00,meteohub,2013-11-22 19:30:00,
2013-11-22 11:35:00,67.3,22.3,30.01,NNE,20,6.0,16.0,18,0.00,,,0.00,meteohub,2013-11-22 19:35:00,
2013-11-22 11:40:00,67.3,19.6,30.01,North,4,6.0,17.0,16,0.00,,,0.00,meteohub,2013-11-22 19:40:00,
2013-11-22 11:45:00,67.3,19.6,30.01,NNW,345,9.0,17.0,16,0.00,,,0.00,meteohub,2013-11-22 19:45:00,
2013-11-22 11:50:00,67.8,9.3,30.00,NNE,13,7.0,26.0,10,0.00,,,0.00,meteohub,2013-11-22 19:50:00,
2013-11-22 11:55:00,68.5,11.8,30.01,NE,50,15.0,26.0,11,0.00,,,0.00,meteohub,2013-11-22 19:55:00,
2013-11-22 12:00:00,68.7,9.9,30.00,North,354,12.0,26.0,10,0.00,,,0.00,meteohub,2013-11-22 20:00:00,
2013-11-22 12:05:00,68.7,9.9,30.00,NNE,25,10.0,23.0,10,0.00,,,0.00,meteohub,2013-11-22 20:05:00,
2013-11-22 12:10:00,69.1,10.2,30.00,NNE,26,19.0,23.0,10,0.00,,,0.00,meteohub,2013-11-22 20:10:00,
2013-11-22 12:15:00,68.7,9.9,30.00,ENE,58,20.0,25.0,10,0.00,,,0.00,meteohub,2013-11-22 20:15:00,
2013-11-22 12:20:00,68.7,9.9,30.00,NNE,24,12.0,34.0,10,0.00,,,0.00,meteohub,2013-11-22 20:20:00,
2013-11-22 12:26:00,68.5,9.9,30.00,ENE,59,27.0,34.0,10,0.00,,,0.00,meteohub,2013-11-22 20:26:00,
2013-11-22 12:31:00,68.7,9.9,30.00,NE,44,12.0,34.0,10,0.00,,,0.00,meteohub,2013-11-22 20:31:00,
2013-11-22 12:36:00,69.1,10.2,30.00,ENE,59,25.0,31.0,10,0.00,,,0.00,meteohub,2013-11-22 20:36:00,
2013-11-22 12:41:00,69.3,10.4,29.99,North,349,3.0,30.0,10,0.00,,,0.00,meteohub,2013-11-22 20:41:00,
2013-11-22 12:46:00,69.8,12.9,29.99,ENE,57,13.0,28.0,11,0.00,,,0.00,meteohub,2013-11-22 20:46:00,
2013-11-22 12:51:00,70.0,13.1,29.99,North,354,6.0,28.0,11,0.00,,,0.00,meteohub,2013-11-22 20:51:00,
2013-11-22 12:56:00,70.2,13.1,29.99,ENE,75,12.0,22.0,11,0.00,,,0.00,meteohub,2013-11-22 20:56:00,
2013-11-22 13:01:00,70.3,11.1,29.98,NNE,31,13.0,25.0,10,0.00,,,0.00,meteohub,2013-11-22 21:01:00,
2013-11-22 13:06:00,70.3,11.1,29.99,NE,37,9.0,25.0,10,0.00,,,0.00,meteohub,2013-11-22 21:06:00,
2013-11-22 13:11:00,70.3,11.1,29.98,ENE,76,12.0,25.0,10,0.00,,,0.00,meteohub,2013-11-22 21:11:00,
2013-11-22 13:16:00,70.3,11.1,29.98,North,4,11.0,27.0,10,0.00,,,0.00,meteohub,2013-11-22 21:16:00,
2013-11-22 13:21:00,70.5,11.3,29.98,ENE,61,22.0,27.0,10,0.00,,,0.00,meteohub,2013-11-22 21:21:00,
2013-11-22 13:26:00,70.5,11.3,29.98,NE,43,23.0,32.0,10,0.00,,,0.00,meteohub,2013-11-22 21:26:00,
2013-11-22 13:31:00,70.5,9.0,29.98,NE,36,20.0,32.0,9,0.00,,,0.00,meteohub,2013-11-22 21:31:00,
2013-11-22 13:36:00,70.5,9.0,29.97,NNE,18,26.0,32.0,9,0.00,,,0.00,meteohub,2013-11-22 21:36:00,
2013-11-22 13:41:00,70.3,8.8,29.97,NE,35,15.0,29.0,9,0.00,,,0.00,meteohub,2013-11-22 21:41:00,
2013-11-22 13:46:00,70.3,8.8,29.96,NE,40,8.0,29.0,9,0.00,,,0.00,meteohub,2013-11-22 21:46:00,
2013-11-22 13:51:00,70.5,11.3,29.96,NE,52,9.0,29.0,10,0.00,,,0.00,meteohub,2013-11-22 21:51:00,
2013-11-22 13:56:00,70.9,9.1,29.96,NE,47,13.0,29.0,9,0.00,,,0.00,meteohub,2013-11-22 21:56:00,
2013-11-22 14:01:00,71.1,9.3,29.96,ENE,59,7.0,25.0,9,0.00,,,0.00,meteohub,2013-11-22 22:01:00,
2013-11-22 14:06:00,71.2,9.5,29.96,ENE,60,19.0,25.0,9,0.00,,,0.00,meteohub,2013-11-22 22:06:00,
2013-11-22 14:11:00,71.2,9.5,29.96,NE,47,14.0,25.0,9,0.00,,,0.00,meteohub,2013-11-22 22:11:00,
2013-11-22 14:16:00,71.1,13.8,29.96,NNE,24,9.0,24.0,11,0.00,,,0.00,meteohub,2013-11-22 22:16:00,
2013-11-22 14:21:00,70.5,19.0,29.96,North,4,5.0,24.0,14,0.00,,,0.00,meteohub,2013-11-22 22:21:00,
2013-11-22 14:26:00,70.5,17.2,29.95,NNE,25,10.0,19.0,13,0.00,,,0.00,meteohub,2013-11-22 22:26:00,
2013-11-22 14:31:00,70.3,17.2,29.95,NE,37,11.0,19.0,13,0.00,,,0.00,meteohub,2013-11-22 22:31:00,
2013-11-22 14:36:00,70.5,17.2,29.95,NNW,343,3.0,18.0,13,0.00,,,0.00,meteohub,2013-11-22 22:36:00,
2013-11-22 14:41:00,70.7,17.4,29.96,NNW,345,10.0,18.0,13,0.00,,,0.00,meteohub,2013-11-22 22:41:00,
2013-11-22 14:46:00,70.7,17.4,29.96,NNE,18,3.0,14.0,13,0.00,,,0.00,meteohub,2013-11-22 22:46:00,
2013-11-22 14:51:00,70.9,17.6,29.95,NNW,332,10.0,14.0,13,0.00,,,0.00,meteohub,2013-11-22 22:51:00,
2013-11-22 14:56:00,71.1,17.8,29.96,North,350,10.0,14.0,13,0.00,,,0.00,meteohub,2013-11-22 22:56:00,
2013-11-22 15:01:00,71.2,17.8,29.96,NNW,345,9.0,13.0,13,0.00,,,0.00,meteohub,2013-11-22 23:01:00,
2013-11-22 15:06:00,71.1,19.4,29.95,NNW,335,8.0,13.0,14,0.00,,,0.00,meteohub,2013-11-22 23:06:00,
2013-11-22 15:11:00,71.1,19.4,29.95,NNW,345,6.0,13.0,14,0.00,,,0.00,meteohub,2013-11-22 23:11:00,
2013-11-22 15:17:00,71.2,22.8,29.95,NW,324,4.0,12.0,16,0.00,,,0.00,meteohub,2013-11-22 23:17:00,
2013-11-22 15:22:00,71.1,24.1,29.95,North,354,4.0,12.0,17,0.00,,,0.00,meteohub,2013-11-22 23:22:00,
2013-11-22 15:27:00,70.7,23.7,29.95,NNW,345,5.0,12.0,17,0.00,,,0.00,meteohub,2013-11-22 23:27:00,
2013-11-22 15:32:00,70.5,23.5,29.95,NNW,333,8.0,12.0,17,0.00,,,0.00,meteohub,2013-11-22 23:32:00,
2013-11-22 15:37:00,70.3,22.1,29.95,NNW,339,7.0,12.0,16,0.00,,,0.00,meteohub,2013-11-22 23:37:00,
2013-11-22 15:42:00,70.3,23.5,29.95,NW,318,11.0,12.0,17,0.00,,,0.00,meteohub,2013-11-22 23:42:00,
2013-11-22 15:47:00,70.0,25.9,29.95,WNW,299,9.0,14.0,19,0.00,,,0.00,meteohub,2013-11-22 23:47:00,
2013-11-22 15:52:00,69.4,25.3,29.95,WNW,302,5.0,14.0,19,0.00,,,0.00,meteohub,2013-11-22 23:52:00,
2013-11-22 15:57:00,69.6,24.3,29.95,NW,310,5.0,14.0,18,0.00,,,0.00,meteohub,2013-11-22 23:57:00,
2013-11-22 16:02:00,69.4,25.3,29.95,NW,312,6.0,12.0,19,0.00,,,0.00,meteohub,2013-11-23 00:02:00,
2013-11-22 16:07:00,69.4,25.3,29.95,NW,313,6.0,12.0,19,0.00,,,0.00,meteohub,2013-11-23 00:07:00,
2013-11-22 16:12:00,69.6,25.5,29.95,NW,314,4.0,9.0,19,0.00,,,0.00,meteohub,2013-11-23 00:12:00,
2013-11-22 16:17:00,69.6,21.4,29.95,NW,322,6.0,8.0,16,0.00,,,0.00,meteohub,2013-11-23 00:17:00,
2013-11-22 16:22:00,69.6,19.9,29.95,NW,321,4.0,8.0,15,0.00,,,0.00,meteohub,2013-11-23 00:22:00,
2013-11-22 16:27:00,69.6,21.4,29.95,NW,305,9.0,10.0,16,0.00,,,0.00,meteohub,2013-11-23 00:27:00,
2013-11-22 16:32:00,69.3,21.2,29.95,NNW,335,6.0,10.0,16,0.00,,,0.00,meteohub,2013-11-23 00:32:00,
2013-11-22 16:37:00,69.1,21.0,29.95,NNW,333,7.0,10.0,16,0.00,,,0.00,meteohub,2013-11-23 00:37:00,
2013-11-22 16:42:00,68.7,22.1,29.94,NNW,335,8.0,10.0,17,0.00,,,0.00,meteohub,2013-11-23 00:42:00,
2013-11-22 16:47:00,68.5,23.4,29.94,North,359,5.0,10.0,18,0.00,,,0.00,meteohub,2013-11-23 00:47:00,
2013-11-22 16:52:00,68.2,21.7,29.94,North,349,7.0,9.0,17,0.00,,,0.00,meteohub,2013-11-23 00:52:00,
2013-11-22 16:57:00,68.0,21.6,29.94,NNW,345,2.0,9.0,17,0.00,,,0.00,meteohub,2013-11-23 00:57:00,
2013-11-22 17:02:00,67.6,21.2,29.94,NNW,337,5.0,8.0,17,0.00,,,0.00,meteohub,2013-11-23 01:02:00,
2013-11-22 17:07:00,67.5,19.8,29.94,NNW,336,3.0,8.0,16,0.00,,,0.00,meteohub,2013-11-23 01:07:00,
2013-11-22 17:12:00,67.3,19.6,29.95,NNW,335,4.0,7.0,16,0.00,,,0.00,meteohub,2013-11-23 01:12:00,
2013-11-22 17:17:00,67.1,20.8,29.95,NNW,328,5.0,7.0,17,0.00,,,0.00,meteohub,2013-11-23 01:17:00,
2013-11-22 17:22:00,66.9,22.1,29.95,NNW,334,5.0,7.0,18,0.00,,,0.00,meteohub,2013-11-23 01:22:00,
2013-11-22 17:27:00,66.7,21.9,29.95,NNW,332,5.0,8.0,18,0.00,,,0.00,meteohub,2013-11-23 01:27:00,
2013-11-22 17:32:00,66.6,21.7,29.95,NNW,342,4.0,8.0,18,0.00,,,0.00,meteohub,2013-11-23 01:32:00,
2013-11-22 17:37:00,66.4,22.8,29.95,NNW,336,5.0,8.0,19,0.00,,,0.00,meteohub,2013-11-23 01:37:00,
2013-11-22 17:42:00,66.0,23.7,29.95,NNW,341,5.0,8.0,20,0.00,,,0.00,meteohub,2013-11-23 01:42:00,
2013-11-22 17:47:00,65.8,24.8,29.95,NNW,347,5.0,8.0,21,0.00,,,0.00,meteohub,2013-11-23 01:47:00,
2013-11-22 17:52:00,65.7,23.5,29.95,NNW,337,9.0,9.0,20,0.00,,,0.00,meteohub,2013-11-23 01:52:00,
2013-11-22 17:57:00,65.7,24.6,29.95,NNW,342,4.0,9.0,21,0.00,,,0.00,meteohub,2013-11-23 01:57:00,
2013-11-22 18:02:00,65.5,24.4,29.95,NNW,339,6.0,9.0,21,0.00,,,0.00,meteohub,2013-11-23 02:02:00,
2013-11-22 18:07:00,65.1,25.3,29.95,NW,324,8.0,9.0,22,0.00,,,0.00,meteohub,2013-11-23 02:07:00,
2013-11-22 18:12:00,65.1,26.4,29.96,North,359,6.0,11.0,23,0.00,,,0.00,meteohub,2013-11-23 02:12:00,
2013-11-22 18:17:00,64.9,25.2,29.96,NNW,348,5.0,11.0,22,0.00,,,0.00,meteohub,2013-11-23 02:17:00,
2013-11-22 18:23:00,64.6,24.8,29.96,NNW,335,4.0,11.0,22,0.00,,,0.00,meteohub,2013-11-23 02:23:00,
2013-11-22 18:28:00,64.4,24.8,29.96,NNW,339,7.0,9.0,22,0.00,,,0.00,meteohub,2013-11-23 02:28:00,
2013-11-22 18:33:00,64.6,24.8,29.96,NNW,332,3.0,10.0,22,0.00,,,0.00,meteohub,2013-11-23 02:33:00,
2013-11-22 18:38:00,64.2,24.6,29.96,NNW,334,5.0,10.0,22,0.00,,,0.00,meteohub,2013-11-23 02:38:00,
2013-11-22 18:43:00,64.0,24.4,29.96,NNW,332,4.0,10.0,22,0.00,,,0.00,meteohub,2013-11-23 02:43:00,
2013-11-22 18:48:00,63.9,23.2,29.96,NNW,330,4.0,8.0,21,0.00,,,0.00,meteohub,2013-11-23 02:48:00,
2013-11-22 18:53:00,63.9,23.2,29.96,NNW,331,4.0,8.0,21,0.00,,,0.00,meteohub,2013-11-23 02:53:00,
2013-11-22 18:58:00,63.9,21.9,29.96,NNW,331,2.0,7.0,20,0.00,,,0.00,meteohub,2013-11-23 02:58:00,
2013-11-22 19:03:00,63.9,20.8,29.96,NNW,331,4.0,6.0,19,0.00,,,0.00,meteohub,2013-11-23 03:03:00,
2013-11-22 19:08:00,63.9,19.6,29.96,North,4,4.0,5.0,18,0.00,,,0.00,meteohub,2013-11-23 03:08:00,
2013-11-22 19:13:00,64.0,18.3,29.96,North,8,2.0,8.0,17,0.00,,,0.00,meteohub,2013-11-23 03:13:00,
2013-11-22 19:18:00,64.0,16.9,29.96,North,9,5.0,8.0,16,0.00,,,0.00,meteohub,2013-11-23 03:18:00,
2013-11-22 19:23:00,64.8,14.4,29.96,NNE,15,13.0,13.0,14,0.00,,,0.00,meteohub,2013-11-23 03:23:00,
2013-11-22 19:28:00,65.5,15.1,29.96,NE,40,8.0,19.0,14,0.00,,,0.00,meteohub,2013-11-23 03:28:00,
2013-11-22 19:33:00,65.5,16.5,29.96,NE,52,7.0,19.0,15,0.00,,,0.00,meteohub,2013-11-23 03:33:00,
2013-11-22 19:38:00,64.9,17.6,29.96,NE,40,6.0,22.0,16,0.00,,,0.00,meteohub,2013-11-23 03:38:00,
2013-11-22 19:43:00,64.2,18.5,29.96,NNE,18,10.0,22.0,17,0.00,,,0.00,meteohub,2013-11-23 03:43:00,
2013-11-22 19:48:00,63.9,20.8,29.96,NNE,29,11.0,16.0,19,0.00,,,0.00,meteohub,2013-11-23 03:48:00,
2013-11-22 19:53:00,63.3,21.6,29.97,NNE,33,8.0,17.0,20,0.00,,,0.00,meteohub,2013-11-23 03:53:00,
2013-11-22 19:58:00,62.8,22.3,29.97,ENE,58,7.0,17.0,21,0.00,,,0.00,meteohub,2013-11-23 03:58:00,
2013-11-22 20:03:00,62.8,21.0,29.96,NE,52,13.0,17.0,20,0.00,,,0.00,meteohub,2013-11-23 04:03:00,
2013-11-22 20:08:00,62.8,21.0,29.96,NNE,31,12.0,17.0,20,0.00,,,0.00,meteohub,2013-11-23 04:08:00,
2013-11-22 20:13:00,63.0,21.2,29.96,NNE,24,6.0,17.0,20,0.00,,,0.00,meteohub,2013-11-23 04:13:00,
2013-11-22 20:18:00,62.6,21.0,29.96,NE,35,6.0,16.0,20,0.00,,,0.00,meteohub,2013-11-23 04:18:00,
2013-11-22 20:23:00,62.8,21.0,29.96,NE,52,6.0,18.0,20,0.00,,,0.00,meteohub,2013-11-23 04:23:00,
2013-11-22 20:28:00,62.4,20.8,29.96,NE,39,6.0,18.0,20,0.00,,,0.00,meteohub,2013-11-23 04:28:00,
2013-11-22 20:33:00,62.2,20.7,29.96,NE,48,8.0,18.0,20,0.00,,,0.00,meteohub,2013-11-23 04:33:00,
2013-11-22 20:38:00,62.2,20.7,29.96,NE,48,5.0,17.0,20,0.00,,,0.00,meteohub,2013-11-23 04:38:00,
2013-11-22 20:43:00,62.4,18.3,29.96,NE,48,13.0,19.0,18,0.00,,,0.00,meteohub,2013-11-23 04:43:00,
2013-11-22 20:48:00,63.3,16.3,29.96,ENE,59,11.0,19.0,16,0.00,,,0.00,meteohub,2013-11-23 04:48:00,
2013-11-22 20:53:00,63.9,16.7,29.97,ENE,66,8.0,21.0,16,0.00,,,0.00,meteohub,2013-11-23 04:53:00,
2013-11-22 20:58:00,63.7,16.7,29.97,ENE,66,8.0,21.0,16,0.00,,,0.00,meteohub,2013-11-23 04:58:00,
2013-11-22 21:01:00,63.5,16.5,29.97,NE,39,9.0,21.0,16,0.00,,,0.00,meteohub,2013-11-23 05:01:00,
2013-11-22 21:02:00,63.5,16.5,29.97,ENE,61,9.0,21.0,16,0.00,,,0.00,meteohub,2013-11-23 05:02:00,
2013-11-22 21:04:00,63.5,16.5,29.97,NE,54,18.0,21.0,16,0.00,,,0.00,meteohub,2013-11-23 05:04:00,
2013-11-22 21:09:00,63.3,16.3,29.97,ENE,62,14.0,21.0,16,0.00,,,0.00,meteohub,2013-11-23 05:09:00,
2013-11-22 21:15:00,63.1,16.2,29.97,ENE,58,12.0,21.0,16,0.00,,,0.00,meteohub,2013-11-23 05:15:00,
2013-11-22 21:20:00,63.5,15.1,29.97,NE,41,7.0,21.0,15,0.00,,,0.00,meteohub,2013-11-23 05:20:00,
2013-11-22 21:25:00,63.3,14.9,29.97,NE,55,10.0,17.0,15,0.00,,,0.00,meteohub,2013-11-23 05:25:00,
2013-11-22 21:30:00,63.3,14.9,29.97,ENE,57,7.0,17.0,15,0.00,,,0.00,meteohub,2013-11-23 05:30:00,
2013-11-22 21:35:00,63.5,15.1,29.98,ENE,69,10.0,17.0,15,0.00,,,0.00,meteohub,2013-11-23 05:35:00,
2013-11-22 21:40:00,63.5,15.1,29.98,ENE,70,10.0,18.0,15,0.00,,,0.00,meteohub,2013-11-23 05:40:00,
2013-11-22 21:45:00,63.7,15.1,29.98,NNW,334,4.0,18.0,15,0.00,,,0.00,meteohub,2013-11-23 05:45:00,
2013-11-22 21:50:00,62.2,18.1,29.99,WNW,294,4.0,18.0,18,0.00,,,0.00,meteohub,2013-11-23 05:50:00,
2013-11-22 21:55:00,61.2,18.5,29.99,WNW,295,5.0,11.0,19,0.00,,,0.00,meteohub,2013-11-23 05:55:00,
2013-11-22 22:00:00,60.3,19.0,29.99,NW,325,7.0,7.0,20,0.00,,,0.00,meteohub,2013-11-23 06:00:00,
2013-11-22 22:05:00,60.8,17.1,29.99,NNW,343,7.0,10.0,18,0.00,,,0.00,meteohub,2013-11-23 06:05:00,
2013-11-22 22:10:00,61.0,18.5,29.99,North,354,5.0,10.0,19,0.00,,,0.00,meteohub,2013-11-23 06:10:00,
2013-11-22 22:15:00,60.4,20.3,29.99,NNW,336,6.0,10.0,21,0.00,,,0.00,meteohub,2013-11-23 06:15:00,
2013-11-22 22:20:00,59.7,19.8,29.99,North,354,6.0,10.0,21,0.00,,,0.00,meteohub,2013-11-23 06:20:00,
2013-11-22 22:25:00,59.5,19.6,29.99,North,4,4.0,9.0,21,0.00,,,0.00,meteohub,2013-11-23 06:25:00,
2013-11-22 22:30:00,59.7,19.8,29.99,NNE,14,6.0,11.0,21,0.00,,,0.00,meteohub,2013-11-23 06:30:00,
2013-11-22 22:35:00,59.7,19.8,30.00,NNE,21,5.0,11.0,21,0.00,,,0.00,meteohub,2013-11-23 06:35:00,
2013-11-22 22:40:00,59.7,19.8,30.00,NNE,31,0.0,9.0,21,0.00,,,0.00,meteohub,2013-11-23 06:40:00,
2013-11-22 22:45:00,59.5,20.7,30.00,NNE,21,4.0,6.0,22,0.00,,,0.00,meteohub,2013-11-23 06:45:00,
2013-11-22 22:50:00,59.2,21.4,30.00,NNE,16,1.0,6.0,23,0.00,,,0.00,meteohub,2013-11-23 06:50:00,
2013-11-22 22:55:00,58.8,21.0,30.00,NNE,12,0.0,6.0,23,0.00,,,0.00,meteohub,2013-11-23 06:55:00,
2013-11-22 23:00:00,58.6,21.0,30.00,NNE,12,5.0,6.0,23,0.00,,,0.00,meteohub,2013-11-23 07:00:00,
2013-11-22 23:05:00,58.8,21.0,30.00,NNE,31,3.0,6.0,23,0.00,,,0.00,meteohub,2013-11-23 07:05:00,
2013-11-22 23:10:00,58.8,21.0,30.00,NE,48,3.0,8.0,23,0.00,,,0.00,meteohub,2013-11-23 07:10:00,
2013-11-22 23:15:00,59.0,20.1,30.00,ENE,62,3.0,8.0,22,0.00,,,0.00,meteohub,2013-11-23 07:15:00,
2013-11-22 23:20:00,59.0,21.2,30.00,ENE,58,9.0,14.0,23,0.00,,,0.00,meteohub,2013-11-23 07:20:00,
2013-11-22 23:25:00,58.6,21.0,30.00,ENE,57,8.0,14.0,23,0.00,,,0.00,meteohub,2013-11-23 07:25:00,
2013-11-22 23:31:00,58.5,21.7,30.00,ENE,70,5.0,14.0,24,0.00,,,0.00,meteohub,2013-11-23 07:31:00,
2013-11-22 23:36:00,58.5,21.7,30.00,ENE,73,10.0,16.0,24,0.00,,,0.00,meteohub,2013-11-23 07:36:00,
2013-11-22 23:41:00,58.5,21.7,30.00,ENE,77,12.0,18.0,24,0.00,,,0.00,meteohub,2013-11-23 07:41:00,
2013-11-22 23:46:00,58.3,22.6,30.00,East,79,13.0,20.0,25,0.00,,,0.00,meteohub,2013-11-23 07:46:00,
2013-11-22 23:51:00,58.3,22.6,30.00,NE,41,14.0,20.0,25,0.00,,,0.00,meteohub,2013-11-23 07:51:00,
2013-11-22 23:56:00,58.1,22.5,30.00,NE,52,9.0,20.0,25,0.00,,,0.00,meteohub,2013-11-23 07:56:00,